createdAt,value
2018-10-12T00:01:25.925Z,98433.00
2018-10-12T00:03:55.942Z,98434.00
2018-10-12T00:06:25.863Z,98432.00
2018-10-12T00:08:55.860Z,98427.00
2018-10-12T00:11:25.786Z,98428.00
2018-10-12T00:13:55.620Z,98426.00
2018-10-12T00:16:25.730Z,98428.00
2018-10-12T00:18:55.643Z,98423.00
2018-10-12T00:21:25.598Z,98421.00
2018-10-12T00:23:56.027Z,98419.00
2018-10-12T00:26:26.542Z,98418.00
2018-10-12T00:28:56.532Z,98419.00
2018-10-12T00:31:26.542Z,98419.00
2018-10-12T00:33:56.446Z,98416.00
2018-10-12T00:36:26.430Z,98418.00
2018-10-12T00:38:56.550Z,98417.00
2018-10-12T00:41:26.438Z,98421.00
2018-10-12T00:43:56.414Z,98427.00
2018-10-12T00:46:26.358Z,98427.00
2018-10-12T00:48:56.432Z,98426.00
2018-10-12T00:51:26.352Z,98427.00
2018-10-12T00:53:56.279Z,98427.00
2018-10-12T00:56:26.297Z,98431.00
2018-10-12T00:58:56.556Z,98437.00
2018-10-12T01:01:26.444Z,98439.00
2018-10-12T01:03:56.476Z,98441.00
2018-10-12T01:06:26.447Z,98434.00
2018-10-12T01:08:56.398Z,98435.00
2018-10-12T01:11:26.402Z,98445.00
2018-10-12T01:13:56.344Z,98445.00
2018-10-12T01:16:26.370Z,98444.00
2018-10-12T01:18:56.292Z,98439.00
2018-10-12T01:21:26.439Z,98438.00
2018-10-12T01:23:56.392Z,98436.00
2018-10-12T01:26:26.695Z,98439.00
2018-10-12T01:28:57.834Z,98443.00
2018-10-12T01:31:28.655Z,98440.00
2018-10-12T01:33:58.669Z,98436.00
2018-10-12T01:36:28.845Z,98437.00
2018-10-12T01:38:58.849Z,98438.00
2018-10-12T01:41:28.735Z,98438.00
2018-10-12T01:59:19.035Z,98441.00
2018-10-12T02:01:49.206Z,98433.00
2018-10-12T02:04:19.205Z,98436.00
2018-10-12T02:06:49.275Z,98435.00
2018-10-12T02:09:19.175Z,98440.00
2018-10-12T02:11:49.296Z,98446.00
2018-10-12T02:14:19.288Z,98440.00
2018-10-12T02:16:49.229Z,98445.00
2018-10-12T02:19:19.116Z,98443.00
2018-10-12T02:21:49.061Z,98444.00
2018-10-12T02:24:19.077Z,98446.00
2018-10-12T02:26:49.443Z,98451.00
2018-10-12T02:29:19.431Z,98448.00
2018-10-12T02:31:49.551Z,98447.00
2018-10-12T02:34:19.487Z,98448.00
2018-10-12T02:36:49.463Z,98451.00
2018-10-12T02:39:19.466Z,98450.00
2018-10-12T02:41:49.378Z,98457.00
2018-10-12T02:44:19.289Z,98464.00
2018-10-12T02:46:49.363Z,98479.00
2018-10-12T02:49:19.448Z,98483.00
2018-10-12T02:51:49.468Z,98502.00
2018-10-12T02:54:19.485Z,98502.00
2018-10-12T02:56:49.533Z,98510.00
2018-10-12T02:59:19.549Z,98512.00
2018-10-12T03:01:49.516Z,98517.00
2018-10-12T03:04:19.486Z,98521.00
2018-10-12T03:06:49.489Z,98523.00
2018-10-12T03:09:19.506Z,98519.00
2018-10-12T03:11:49.425Z,98520.00
2018-10-12T03:14:19.368Z,98518.00
2018-10-12T03:16:49.359Z,98533.00
2018-10-12T03:19:19.476Z,98529.00
2018-10-12T03:21:49.422Z,98540.00
2018-10-12T03:24:19.408Z,98545.00
2018-10-12T03:26:49.272Z,98539.00
2018-10-12T03:29:19.204Z,98551.00
2018-10-12T03:31:49.303Z,98549.00
2018-10-12T03:34:19.547Z,98551.00
2018-10-12T03:36:49.568Z,98550.00
2018-10-12T03:39:19.831Z,98549.00
2018-10-12T03:41:49.942Z,98552.00
2018-10-12T03:44:20.018Z,98559.00
2018-10-12T03:46:50.062Z,98562.00
2018-10-12T03:49:20.032Z,98570.00
2018-10-12T03:51:50.115Z,98567.00
2018-10-12T03:54:19.999Z,98569.00
2018-10-12T03:56:49.906Z,98567.00
2018-10-12T03:59:19.801Z,98567.00
2018-10-12T04:01:49.892Z,98576.00
2018-10-12T04:04:19.808Z,98579.00
2018-10-12T04:06:49.762Z,98586.00
2018-10-12T04:09:19.778Z,98595.00
2018-10-12T04:11:49.789Z,98602.00
2018-10-12T04:14:19.665Z,98603.00
2018-10-12T04:16:49.616Z,98603.00
2018-10-12T04:19:19.536Z,98599.00
2018-10-12T04:21:49.566Z,98606.00
2018-10-12T04:24:19.564Z,98609.00
2018-10-12T04:26:49.510Z,98610.00
2018-10-12T04:29:19.434Z,98610.00
2018-10-12T04:31:49.316Z,98607.00
2018-10-12T04:34:19.258Z,98618.00
2018-10-12T04:36:49.192Z,98629.00
2018-10-12T04:39:39.143Z,98637.00
2018-10-12T04:42:09.249Z,98656.00
2018-10-12T04:44:39.196Z,98660.00
2018-10-12T04:47:09.209Z,98662.00
2018-10-12T04:49:39.291Z,98669.00
2018-10-12T04:52:09.306Z,98670.00
2018-10-12T04:54:39.204Z,98678.00
2018-10-12T04:57:09.151Z,98680.00
2018-10-12T04:59:39.101Z,98681.00
2018-10-12T05:02:09.100Z,98685.00
2018-10-12T05:04:39.024Z,98681.00
2018-10-12T05:07:09.043Z,98681.00
2018-10-12T05:09:39.056Z,98683.00
2018-10-12T05:12:09.510Z,98688.00
2018-10-12T05:14:39.532Z,98693.00
2018-10-12T05:17:09.511Z,98699.00
2018-10-12T05:19:39.574Z,98702.00
2018-10-12T05:22:09.535Z,98703.00
2018-10-12T05:24:39.477Z,98699.00
2018-10-12T05:27:09.483Z,98706.00
2018-10-12T05:29:39.436Z,98719.00
2018-10-12T05:32:09.412Z,98728.00
2018-10-12T05:34:39.515Z,98725.00
2018-10-12T05:37:09.444Z,98726.00
2018-10-12T05:39:39.354Z,98733.00
2018-10-12T05:42:10.134Z,98731.00
2018-10-12T05:44:40.192Z,98727.00
2018-10-12T05:47:10.075Z,98731.00
2018-10-12T05:49:59.914Z,98731.00
2018-10-12T05:52:30.623Z,98737.00
2018-10-12T05:55:01.705Z,98739.00
2018-10-12T05:57:34.537Z,98747.00
2018-10-12T06:00:04.936Z,98754.00
2018-10-12T06:02:34.863Z,98752.00
2018-10-12T06:05:05.325Z,98752.00
2018-10-12T06:07:35.724Z,98757.00
2018-10-12T06:10:05.840Z,98761.00
2018-10-12T06:12:35.735Z,98770.00
2018-10-12T06:15:06.107Z,98777.00
2018-10-12T06:17:36.140Z,98776.00
2018-10-12T06:20:06.219Z,98781.00
2018-10-12T06:22:36.341Z,98791.00
2018-10-12T06:25:06.742Z,98791.00
2018-10-12T06:27:37.097Z,98791.00
2018-10-12T06:30:07.663Z,98798.00
2018-10-12T06:32:40.965Z,98804.00
2018-10-12T06:35:11.070Z,98805.00
2018-10-12T06:37:40.944Z,98796.00
2018-10-12T06:40:11.104Z,98795.00
2018-10-12T06:42:41.124Z,98803.00
2018-10-12T06:45:11.148Z,98806.00
2018-10-12T06:47:41.244Z,98806.00
2018-10-12T06:50:11.155Z,98808.00
2018-10-12T06:52:41.089Z,98807.00
2018-10-12T06:55:11.063Z,98804.00
2018-10-12T06:57:41.081Z,98797.00
2018-10-12T07:00:11.057Z,98804.00
2018-10-12T07:02:41.116Z,98810.00
2018-10-12T07:05:11.337Z,98821.00
2018-10-12T07:07:41.314Z,98822.00
2018-10-12T07:10:11.237Z,98833.00
2018-10-12T07:12:41.197Z,98847.00
2018-10-12T07:15:11.167Z,98851.00
2018-10-12T07:17:41.168Z,98844.00
2018-10-12T07:20:11.191Z,98847.00
2018-10-12T07:22:41.101Z,98854.00
2018-10-12T07:25:11.100Z,98861.00
2018-10-12T07:27:41.118Z,98865.00
2018-10-12T07:30:11.137Z,98873.00
2018-10-12T07:32:41.155Z,98871.00
2018-10-12T07:35:11.183Z,98876.00
2018-10-12T07:37:41.184Z,98866.00
2018-10-12T07:40:11.190Z,98868.00
2018-10-12T07:42:41.792Z,98873.00
2018-10-12T07:45:11.911Z,98868.00
2018-10-12T07:47:42.031Z,98871.00
2018-10-12T07:50:11.955Z,98875.00
2018-10-12T07:52:42.066Z,98879.00
2018-10-12T07:55:12.172Z,98879.00
2018-10-12T07:57:42.257Z,98885.00
2018-10-12T08:00:12.399Z,98891.00
2018-10-12T08:02:42.341Z,98888.00
2018-10-12T08:05:12.200Z,98893.00
2018-10-12T08:07:42.206Z,98899.00
2018-10-12T08:10:12.228Z,98903.00
2018-10-12T08:12:42.317Z,98902.00
2018-10-12T08:15:12.302Z,98905.00
2018-10-12T08:17:42.274Z,98905.00
2018-10-12T08:20:13.477Z,98911.00
2018-10-12T08:22:43.508Z,98910.00
2018-10-12T08:25:13.744Z,98904.00
2018-10-12T08:27:43.685Z,98911.00
2018-10-12T08:30:13.872Z,98911.00
2018-10-12T08:32:43.872Z,98912.00
2018-10-12T08:35:14.162Z,98913.00
2018-10-12T08:37:44.144Z,98913.00
2018-10-12T08:40:14.032Z,98919.00
2018-10-12T08:42:44.066Z,98924.00
2018-10-12T08:45:13.948Z,98917.00
2018-10-12T08:47:43.860Z,98916.00
2018-10-12T08:50:13.854Z,98905.00
2018-10-12T08:52:43.906Z,98907.00
2018-10-12T08:55:13.888Z,98906.00
2018-10-12T08:57:44.102Z,98912.00
2018-10-12T09:00:14.660Z,98910.00
2018-10-12T09:02:44.668Z,98912.00
2018-10-12T09:05:14.702Z,98910.00
2018-10-12T09:07:44.730Z,98912.00
2018-10-12T09:10:14.722Z,98910.00
2018-10-12T09:12:44.689Z,98909.00
2018-10-12T09:15:14.720Z,98903.00
2018-10-12T09:17:44.710Z,98906.00
2018-10-12T09:20:14.757Z,98908.00
2018-10-12T09:22:44.670Z,98910.00
2018-10-12T09:25:14.518Z,98908.00
2018-10-12T09:27:44.468Z,98909.00
2018-10-12T09:30:14.532Z,98915.00
2018-10-12T09:32:44.498Z,98911.00
2018-10-12T09:35:14.442Z,98916.00
2018-10-12T09:37:44.565Z,98911.00
2018-10-12T09:40:14.465Z,98911.00
2018-10-12T09:42:44.525Z,98914.00
2018-10-12T09:45:14.482Z,98911.00
2018-10-12T09:47:44.426Z,98910.00
2018-10-12T09:50:14.500Z,98912.00
2018-10-12T09:52:44.426Z,98912.00
2018-10-12T09:55:14.371Z,98919.00
2018-10-12T09:57:44.301Z,98920.00
2018-10-12T10:00:19.349Z,98925.00
2018-10-12T10:02:54.657Z,98924.00
2018-10-12T10:05:24.734Z,98922.00
2018-10-12T10:07:54.982Z,98913.00
2018-10-12T10:10:24.768Z,98909.00
2018-10-12T10:12:54.825Z,98910.00
2018-10-12T10:15:24.954Z,98914.00
2018-10-12T10:17:55.246Z,98912.00
2018-10-12T10:20:25.176Z,98916.00
2018-10-12T10:22:55.151Z,98911.00
2018-10-12T10:25:25.044Z,98918.00
2018-10-12T10:27:55.146Z,98914.00
2018-10-12T10:30:25.049Z,98915.00
2018-10-12T10:32:55.067Z,98916.00
2018-10-12T10:35:25.099Z,98914.00
2018-10-12T10:37:55.037Z,98913.00
2018-10-12T10:40:25.249Z,98910.00
2018-10-12T10:42:55.191Z,98910.00
2018-10-12T10:45:25.122Z,98909.00
2018-10-12T10:47:55.054Z,98906.00
2018-10-12T10:50:25.021Z,98905.00
2018-10-12T10:52:54.988Z,98896.00
2018-10-12T10:55:25.050Z,98887.00
2018-10-12T10:57:54.987Z,98884.00
2018-10-12T11:00:25.197Z,98883.00
2018-10-12T11:02:55.452Z,98883.00
2018-10-12T11:05:25.345Z,98878.00
2018-10-12T11:07:55.364Z,98879.00
2018-10-12T11:10:25.338Z,98875.00
2018-10-12T11:12:55.396Z,98877.00
2018-10-12T11:15:25.337Z,98872.00
2018-10-12T11:17:55.353Z,98870.00
2018-10-12T11:20:25.369Z,98867.00
2018-10-12T11:22:55.464Z,98867.00
2018-10-12T11:25:25.347Z,98857.00
2018-10-12T11:27:55.354Z,98861.00
2018-10-12T11:30:25.359Z,98867.00
2018-10-12T11:32:55.369Z,98867.00
2018-10-12T11:35:25.325Z,98867.00
2018-10-12T11:37:55.224Z,98873.00
2018-10-12T11:40:25.257Z,98865.00
2018-10-12T11:43:12.367Z,98868.00
2018-10-12T11:45:42.735Z,98866.00
2018-10-12T11:48:12.751Z,98867.00
2018-10-12T11:50:42.705Z,98867.00
2018-10-12T11:53:12.616Z,98864.00
2018-10-12T11:55:42.702Z,98859.00
2018-10-12T11:58:12.657Z,98860.00
2018-10-12T12:00:42.761Z,98857.00
2018-10-12T12:03:12.897Z,98848.00
2018-10-12T12:05:42.869Z,98853.00
2018-10-12T12:08:12.769Z,98854.00
2018-10-12T12:10:42.961Z,98855.00
2018-10-12T12:13:12.978Z,98858.00
2018-10-12T12:15:42.913Z,98853.00
2018-10-12T12:18:12.921Z,98846.00
2018-10-12T12:20:43.056Z,98855.00
2018-10-12T12:23:12.949Z,98848.00
2018-10-12T12:25:43.073Z,98847.00
2018-10-12T12:28:13.049Z,98847.00
2018-10-12T12:30:42.994Z,98843.00
2018-10-12T12:33:13.084Z,98841.00
2018-10-12T12:35:43.341Z,98844.00
2018-10-12T12:38:13.015Z,98843.00
2018-10-12T12:40:43.080Z,98840.00
2018-10-12T12:43:13.058Z,98841.00
2018-10-12T12:45:43.014Z,98840.00
2018-10-12T12:48:13.159Z,98836.00
2018-10-12T12:50:42.900Z,98833.00
2018-10-12T12:53:12.888Z,98834.00
2018-10-12T12:55:43.814Z,98828.00
2018-10-12T12:58:13.824Z,98825.00
2018-10-12T13:00:43.902Z,98820.00
2018-10-12T13:03:13.885Z,98821.00
2018-10-12T13:05:43.998Z,98825.00
2018-10-12T13:08:14.016Z,98823.00
2018-10-12T13:10:43.986Z,98827.00
2018-10-12T13:13:14.078Z,98832.00
2018-10-12T13:15:44.004Z,98829.00
2018-10-12T13:18:14.016Z,98831.00
2018-10-12T13:20:43.940Z,98834.00
2018-10-12T13:23:13.932Z,98833.00
2018-10-12T13:25:44.041Z,98836.00
2018-10-12T13:28:13.996Z,98838.00
2018-10-12T13:30:44.013Z,98842.00
2018-10-12T13:33:13.967Z,98839.00
2018-10-12T13:35:43.880Z,98839.00
2018-10-12T13:38:13.976Z,98833.00
2018-10-12T13:40:44.123Z,98831.00
2018-10-12T13:43:14.159Z,98827.00
2018-10-12T13:45:44.070Z,98836.00
2018-10-12T13:48:14.042Z,98835.00
2018-10-12T13:50:43.993Z,98835.00
2018-10-12T13:53:14.097Z,98834.00
2018-10-12T13:55:44.041Z,98834.00
2018-10-12T13:58:14.224Z,98840.00
2018-10-12T14:00:44.385Z,98831.00
2018-10-12T14:03:14.357Z,98832.00
2018-10-12T14:05:44.330Z,98834.00
2018-10-12T14:08:14.856Z,98830.00
2018-10-12T14:10:44.886Z,98831.00
2018-10-12T14:13:14.741Z,98836.00
2018-10-12T14:15:44.668Z,98833.00
2018-10-12T14:18:14.829Z,98835.00
2018-10-12T14:20:45.665Z,98832.00
2018-10-12T14:23:15.758Z,98829.00
2018-10-12T14:25:45.862Z,98830.00
2018-10-12T14:28:15.866Z,98826.00
2018-10-12T14:30:45.990Z,98822.00
2018-10-12T14:33:16.204Z,98821.00
2018-10-12T14:35:46.191Z,98825.00
2018-10-12T14:38:16.151Z,98825.00
2018-10-12T14:40:46.332Z,98829.00
2018-10-12T14:43:16.463Z,98833.00
2018-10-12T14:45:46.380Z,98829.00
2018-10-12T14:48:16.427Z,98829.00
2018-10-12T14:50:46.451Z,98825.00
2018-10-12T14:53:16.538Z,98833.00
2018-10-12T14:55:46.501Z,98835.00
2018-10-12T14:58:16.614Z,98833.00
2018-10-12T15:00:46.685Z,98835.00
2018-10-12T15:03:16.655Z,98834.00
2018-10-12T15:05:46.663Z,98830.00
2018-10-12T15:08:16.678Z,98835.00
2018-10-12T15:10:46.610Z,98834.00
2018-10-12T15:13:16.584Z,98827.00
2018-10-12T15:15:46.625Z,98821.00
2018-10-12T15:18:16.669Z,98818.00
2018-10-12T15:20:46.684Z,98813.00
2018-10-12T15:23:16.629Z,98810.00
2018-10-12T15:25:46.750Z,98813.00
2018-10-12T15:28:16.767Z,98811.00
2018-10-12T15:30:46.808Z,98812.00
2018-10-12T15:33:16.828Z,98813.00
2018-10-12T15:35:47.067Z,98818.00
2018-10-12T15:38:16.998Z,98822.00
2018-10-12T15:40:47.141Z,98831.00
2018-10-12T15:43:17.217Z,98833.00
2018-10-12T15:45:47.082Z,98832.00
2018-10-12T15:48:17.795Z,98835.00
2018-10-12T15:50:47.825Z,98834.00
2018-10-12T15:53:17.885Z,98832.00
2018-10-12T15:55:47.813Z,98839.00
2018-10-12T15:58:17.908Z,98844.00
2018-10-12T16:00:47.830Z,98844.00
2018-10-12T16:03:17.769Z,98844.00
2018-10-12T16:05:47.975Z,98843.00
2018-10-12T16:08:17.910Z,98849.00
2018-10-12T16:10:48.015Z,98849.00
2018-10-12T16:13:18.433Z,98847.00
2018-10-12T16:15:48.319Z,98845.00
2018-10-12T16:18:18.397Z,98845.00
2018-10-12T16:20:48.333Z,98844.00
2018-10-12T16:23:18.397Z,98847.00
2018-10-12T16:26:06.666Z,98853.00
2018-10-12T16:28:36.752Z,98859.00
2018-10-12T16:31:07.382Z,98865.00
2018-10-12T16:33:37.817Z,98867.00
2018-10-12T16:36:07.876Z,98867.00
2018-10-12T16:38:37.879Z,98869.00
2018-10-12T16:41:07.858Z,98874.00
2018-10-12T16:43:40.502Z,98874.00
2018-10-12T16:46:10.551Z,98879.00
2018-10-12T16:48:40.966Z,98882.00
2018-10-12T16:51:11.238Z,98881.00
2018-10-12T16:53:41.639Z,98883.00
2018-10-12T16:56:11.643Z,98882.00
2018-10-12T16:58:46.271Z,98887.00
2018-10-12T17:01:16.395Z,98886.00
2018-10-12T17:03:46.472Z,98889.00
2018-10-12T17:06:16.695Z,98889.00
2018-10-12T17:08:49.480Z,98890.00
2018-10-12T17:11:19.485Z,98888.00
2018-10-12T17:13:49.551Z,98895.00
2018-10-12T17:16:19.530Z,98896.00
2018-10-12T17:18:49.599Z,98899.00
2018-10-12T17:21:19.660Z,98898.00
2018-10-12T17:23:49.619Z,98907.00
2018-10-12T17:26:19.643Z,98910.00
2018-10-12T17:28:49.808Z,98910.00
2018-10-12T17:31:19.823Z,98916.00
2018-10-12T17:33:49.913Z,98914.00
2018-10-12T17:36:20.008Z,98920.00
2018-10-12T17:38:50.374Z,98922.00
2018-10-12T17:41:21.418Z,98925.00
2018-10-12T17:43:51.690Z,98921.00
2018-10-12T17:46:21.942Z,98925.00
2018-10-12T17:48:51.934Z,98929.00
2018-10-12T17:51:21.923Z,98932.00
2018-10-12T17:53:51.936Z,98937.00
2018-10-12T17:56:21.968Z,98933.00
2018-10-12T17:58:51.882Z,98933.00
2018-10-12T18:01:21.904Z,98946.00
2018-10-12T18:03:51.916Z,98947.00
2018-10-12T18:06:22.089Z,98950.00
2018-10-12T18:08:52.121Z,98953.00
2018-10-12T18:11:22.139Z,98958.00
2018-10-12T18:13:52.249Z,98954.00
2018-10-12T18:16:22.402Z,98955.00
2018-10-12T18:18:52.503Z,98957.00
2018-10-12T18:21:22.432Z,98961.00
2018-10-12T18:23:52.440Z,98961.00
2018-10-12T18:26:22.411Z,98961.00
2018-10-12T18:28:52.352Z,98959.00
2018-10-12T18:31:22.387Z,98961.00
2018-10-12T18:33:52.405Z,98959.00
2018-10-12T18:36:22.593Z,98959.00
2018-10-12T18:38:52.732Z,98958.00
2018-10-12T18:41:22.795Z,98960.00
2018-10-12T18:43:52.855Z,98959.00
2018-10-12T18:46:22.876Z,98961.00
2018-10-12T18:48:52.790Z,98963.00
2018-10-12T18:51:22.662Z,98966.00
2018-10-12T18:53:52.601Z,98967.00
2018-10-12T18:56:22.546Z,98969.00
2018-10-12T18:58:52.532Z,98967.00
2018-10-12T19:01:22.535Z,98968.00
2018-10-12T19:03:52.481Z,98970.00
2018-10-12T19:06:22.553Z,98970.00
2018-10-12T19:08:52.459Z,98973.00
2018-10-12T19:11:22.364Z,98978.00
2018-10-12T19:13:52.283Z,98971.00
2018-10-12T19:16:22.335Z,98975.00
2018-10-12T19:18:52.374Z,98975.00
2018-10-12T19:21:22.362Z,98978.00
2018-10-12T19:23:52.476Z,98974.00
2018-10-12T19:26:22.386Z,98977.00
2018-10-12T19:28:52.475Z,98977.00
2018-10-12T19:31:22.517Z,98977.00
2018-10-12T19:33:52.398Z,98976.00
2018-10-12T19:36:22.455Z,98974.00
2018-10-12T19:38:53.872Z,98978.00
2018-10-12T19:41:23.861Z,98982.00
2018-10-12T19:43:53.906Z,98978.00
2018-10-12T19:46:23.856Z,98980.00
2018-10-12T19:48:53.857Z,98982.00
2018-10-12T19:51:23.863Z,98986.00
2018-10-12T19:53:53.819Z,98988.00
2018-10-12T19:56:23.855Z,98989.00
2018-10-12T19:58:53.817Z,98994.00
2018-10-12T20:01:23.745Z,98996.00
2018-10-12T20:03:53.808Z,98996.00
2018-10-12T20:06:26.901Z,98998.00
2018-10-12T20:08:56.889Z,98992.00
2018-10-12T20:11:26.888Z,98994.00
2018-10-12T20:13:56.947Z,98991.00
2018-10-12T20:16:26.905Z,98992.00
2018-10-12T20:18:57.617Z,98992.00
2018-10-12T20:21:28.454Z,98997.00
2018-10-12T20:23:59.665Z,98993.00
2018-10-12T20:26:29.730Z,98999.00
2018-10-12T20:28:59.700Z,98995.00
2018-10-12T20:31:30.172Z,98998.00
2018-10-12T20:34:00.105Z,99001.00
2018-10-12T20:36:30.123Z,99005.00
2018-10-12T20:39:00.282Z,99003.00
2018-10-12T20:41:30.197Z,98998.00
2018-10-12T20:44:00.171Z,99003.00
2018-10-12T20:46:30.238Z,99004.00
2018-10-12T20:49:00.222Z,99004.00
2018-10-12T20:51:30.344Z,99006.00
2018-10-12T20:54:00.409Z,99010.00
2018-10-12T20:56:30.583Z,99014.00
2018-10-12T20:59:00.603Z,99010.00
2018-10-12T21:01:30.662Z,99013.00
2018-10-12T21:04:00.637Z,99017.00
2018-10-12T21:06:30.888Z,99015.00
2018-10-12T21:09:00.814Z,99013.00
2018-10-12T21:11:30.751Z,99014.00
2018-10-12T21:14:00.959Z,99021.00
2018-10-12T21:16:30.885Z,99017.00
2018-10-12T21:19:01.197Z,99022.00
2018-10-12T21:21:31.076Z,99018.00
2018-10-12T21:24:01.066Z,99019.00
2018-10-12T21:26:31.065Z,99016.00
2018-10-12T21:29:01.066Z,99007.00
2018-10-12T21:31:31.142Z,99013.00
2018-10-12T21:34:01.094Z,99014.00
2018-10-12T21:36:31.078Z,99009.00
2018-10-12T21:39:00.975Z,99016.00
2018-10-12T21:41:30.902Z,99014.00
2018-10-12T21:44:00.917Z,99012.00
2018-10-12T21:46:30.816Z,99009.00
2018-10-12T21:49:00.728Z,99013.00
2018-10-12T21:51:30.677Z,99010.00
2018-10-12T21:54:00.650Z,99011.00
2018-10-12T21:56:30.570Z,99011.00
2018-10-12T21:59:00.527Z,99009.00
2018-10-12T22:01:30.426Z,99010.00
2018-10-12T22:04:00.393Z,99003.00
2018-10-12T22:06:30.313Z,99009.00
2018-10-12T22:09:06.152Z,99003.00
2018-10-12T22:11:36.053Z,99000.00
2018-10-12T22:14:06.089Z,99002.00
2018-10-12T22:16:36.016Z,99003.00
2018-10-12T22:19:06.092Z,99006.00
2018-10-12T22:21:36.154Z,99010.00
2018-10-12T22:24:06.292Z,99012.00
2018-10-12T22:26:36.357Z,99008.00
2018-10-12T22:29:06.464Z,99005.00
2018-10-12T22:31:36.457Z,99015.00
2018-10-12T22:34:06.777Z,99012.00
2018-10-12T22:36:36.751Z,99014.00
2018-10-12T22:39:08.969Z,99015.00
2018-10-12T22:41:38.922Z,99016.00
2018-10-12T22:44:09.037Z,99016.00
2018-10-12T22:46:38.978Z,99013.00
2018-10-12T22:49:08.993Z,99014.00
2018-10-12T22:51:38.912Z,99012.00
2018-10-12T22:54:08.962Z,99013.00
2018-10-12T22:56:39.037Z,99013.00
2018-10-12T22:59:09.289Z,99010.00
2018-10-12T23:01:39.234Z,99014.00
2018-10-12T23:04:09.257Z,99014.00
2018-10-12T23:06:39.165Z,99008.00
2018-10-12T23:09:10.715Z,99010.00
2018-10-12T23:11:41.070Z,99010.00
2018-10-12T23:14:11.235Z,99012.00
2018-10-12T23:16:41.201Z,99009.00
2018-10-12T23:19:11.189Z,99012.00
2018-10-12T23:21:41.205Z,99013.00
2018-10-12T23:24:11.192Z,99013.00
2018-10-12T23:26:41.071Z,99013.00
2018-10-12T23:29:11.090Z,99013.00
2018-10-12T23:31:41.012Z,99010.00
2018-10-12T23:34:11.084Z,99008.00
2018-10-12T23:36:41.185Z,99008.00
2018-10-12T23:39:11.125Z,99005.00
2018-10-12T23:41:41.110Z,99013.00
2018-10-12T23:44:10.966Z,99014.00
2018-10-12T23:46:40.873Z,99012.00
2018-10-12T23:49:10.789Z,99012.00
2018-10-12T23:51:40.753Z,99016.00
2018-10-12T23:54:10.707Z,99016.00
2018-10-12T23:56:40.837Z,99015.00
2018-10-12T23:59:10.783Z,99014.00
